Time;durP1;ratioP1;P1;durP2;ratioP2;P2;SDS_P1;SDS_P2;PMS_P1;PMS_P2;Temp;Humidity;BMP_temperature;BMP_pressure;BME280_temperature;BME280_humidity;BME280_pressure;Samples;Min_cycle;Max_cycle;Signal;HPM_P1;HPM_P2
2022/07/19 00:00:58;;;;;;;7.13;2.50;;;20.90;56.00;;;;;;20919020;28;20257;-74
2022/07/19 00:10:59;;;;;;;10.00;2.60;;;20.80;56.20;;;;;;20918176;28;20261;-73
2022/07/19 00:21:01;;;;;;;5.03;2.70;;;20.70;56.40;;;;;;20949876;28;20235;-74
2022/07/19 00:31:04;;;;;;;8.50;2.77;;;20.70;56.50;;;;;;20997427;28;20254;-74
2022/07/19 00:41:06;;;;;;;7.63;2.63;;;20.50;56.90;;;;;;20998534;28;20245;-74
2022/07/19 00:51:13;;;;;;;7.50;2.33;;;20.30;57.50;;;;;;20998266;28;20219;-74
2022/07/19 01:01:15;;;;;;;3.97;2.43;;;20.10;57.70;;;;;;20997177;28;20238;-73
2022/07/19 01:11:17;;;;;;;9.00;2.60;;;20.00;57.90;;;;;;20996468;28;20203;-73
2022/07/19 01:21:21;;;;;;;10.77;2.60;;;19.90;58.30;;;;;;20996352;28;20723;-73
2022/07/19 01:31:22;;;;;;;7.43;2.43;;;19.80;58.60;;;;;;20995419;28;20216;-72
2022/07/19 01:41:24;;;;;;;5.37;2.50;;;19.60;59.00;;;;;;20994965;28;20853;-74
2022/07/19 01:51:26;;;;;;;7.07;2.77;;;19.40;59.50;;;;;;20995213;28;20679;-73
2022/07/19 02:01:27;;;;;;;8.80;2.60;;;19.30;60.00;;;;;;20994310;28;20241;-73
2022/07/19 02:11:35;;;;;;;2.83;2.20;;;19.20;60.40;;;;;;20994136;28;20549;-73
2022/07/19 02:21:38;;;;;;;4.43;2.90;;;19.00;60.40;;;;;;20958896;28;20883;-73
2022/07/19 02:31:39;;;;;;;3.60;2.33;;;19.00;60.90;;;;;;20907388;28;20225;-74
2022/07/19 02:41:41;;;;;;;4.03;2.60;;;18.90;61.00;;;;;;20915757;28;20238;-74
2022/07/19 02:51:43;;;;;;;6.03;2.53;;;18.90;61.20;;;;;;20925161;28;20577;-73
2022/07/19 03:01:45;;;;;;;7.70;2.73;;;18.70;61.90;;;;;;20923855;28;20702;-73
2022/07/19 03:11:47;;;;;;;8.87;2.30;;;18.60;62.40;;;;;;20923142;28;20220;-72
2022/07/19 03:21:49;;;;;;;4.53;2.77;;;18.50;62.30;;;;;;20922814;28;20229;-73
2022/07/19 03:31:50;;;;;;;5.30;2.50;;;18.40;62.80;;;;;;20921596;28;20214;-73
2022/07/19 03:41:52;;;;;;;6.30;2.87;;;18.30;63.30;;;;;;20920606;28;20294;-73
2022/07/19 03:52:00;;;;;;;5.73;3.13;;;18.30;63.60;;;;;;20920391;28;20242;-73
2022/07/19 04:02:02;;;;;;;3.97;2.63;;;18.10;63.90;;;;;;20919095;28;20237;-72
2022/07/19 04:12:04;;;;;;;11.73;2.87;;;18.20;64.10;;;;;;20918388;28;20656;-73
2022/07/19 04:22:06;;;;;;;8.87;4.03;;;18.00;64.60;;;;;;20915643;28;20232;-74
2022/07/19 04:32:07;;;;;;;8.30;2.60;;;17.90;64.90;;;;;;20915163;28;20207;-74
2022/07/19 04:42:09;;;;;;;16.20;3.17;;;18.00;65.20;;;;;;20914238;28;20247;-73
2022/07/19 04:52:11;;;;;;;10.77;3.83;;;18.00;65.20;;;;;;20913814;28;20214;-73
2022/07/19 05:02:13;;;;;;;9.77;3.60;;;18.20;65.50;;;;;;20914104;28;20243;-72
2022/07/19 05:12:15;;;;;;;7.50;3.40;;;18.30;65.30;;;;;;20913462;28;20663;-73
2022/07/19 05:22:18;;;;;;;18.03;3.80;;;18.60;65.50;;;;;;20912703;28;20237;-72
2022/07/19 05:32:19;;;;;;;22.27;4.47;;;18.70;65.10;;;;;;20912285;28;20208;-72
2022/07/19 05:42:21;;;;;;;25.23;4.63;;;19.00;64.80;;;;;;20909988;28;20249;-72
2022/07/19 05:52:23;;;;;;;30.80;5.20;;;19.20;64.50;;;;;;20910097;28;20217;-73
2022/07/19 06:02:27;;;;;;;28.50;4.30;;;19.50;64.20;;;;;;20911208;28;20232;-71
2022/07/19 06:12:28;;;;;;;21.67;6.00;;;19.80;63.60;;;;;;20909979;28;20209;-74
2022/07/19 06:22:31;;;;;;;19.80;5.70;;;20.00;62.90;;;;;;20922999;28;20329;-74
2022/07/19 06:32:33;;;;;;;19.23;4.87;;;20.40;62.20;;;;;;20920648;28;20246;-73
2022/07/19 06:42:35;;;;;;;68.03;34.53;;;20.70;61.30;;;;;;20923154;28;20236;-73
2022/07/19 06:52:37;;;;;;;17.03;6.43;;;21.10;60.90;;;;;;20922991;28;20222;-73
2022/07/19 07:02:40;;;;;;;10.57;4.23;;;21.40;60.00;;;;;;20922002;28;20695;-73
2022/07/19 07:12:42;;;;;;;16.67;7.70;;;21.80;59.20;;;;;;20921788;28;20251;-74
2022/07/19 07:22:44;;;;;;;14.07;5.20;;;22.10;58.50;;;;;;20921095;28;20258;-73
2022/07/19 07:32:45;;;;;;;22.67;9.57;;;22.50;57.70;;;;;;20920959;28;20223;-75
2022/07/19 07:42:47;;;;;;;12.60;4.77;;;22.80;56.90;;;;;;20920357;28;20240;-74
2022/07/19 07:52:48;;;;;;;31.40;11.60;;;23.10;56.40;;;;;;20916856;28;20290;-73
2022/07/19 08:02:50;;;;;;;7.70;3.63;;;23.50;55.80;;;;;;20918826;28;20222;-74
2022/07/19 08:12:52;;;;;;;13.30;3.20;;;23.90;55.30;;;;;;20917448;28;20215;-74
2022/07/19 08:22:54;;;;;;;21.17;14.17;;;24.20;54.70;;;;;;20916309;28;20208;-72
2022/07/19 08:32:55;;;;;;;7.67;3.00;;;24.50;54.00;;;;;;20913660;28;20215;-72
2022/07/19 08:42:58;;;;;;;6.87;2.77;;;24.90;53.00;;;;;;20912931;28;20238;-74
2022/07/19 08:53:01;;;;;;;6.23;3.07;;;25.30;51.60;;;;;;20913103;28;20218;-73
2022/07/19 09:03:05;;;;;;;10.10;4.70;;;25.70;50.30;;;;;;20912939;28;20208;-73
2022/07/19 09:13:13;;;;;;;12.57;6.17;;;26.10;49.40;;;;;;20912530;28;20610;-75
2022/07/19 09:23:16;;;;;;;12.47;2.83;;;26.40;48.80;;;;;;20912209;28;20302;-74
2022/07/19 09:33:20;;;;;;;5.10;2.70;;;26.80;48.10;;;;;;20910612;28;20669;-74
2022/07/19 09:43:24;;;;;;;7.13;2.85;;;27.20;47.60;;;;;;20907078;28;20232;-74
2022/07/19 09:53:47;;;;;;;4.77;2.30;;;27.50;46.80;;;;;;20929034;28;20691;-73
2022/07/19 10:03:50;;;;;;;5.38;3.17;;;27.80;45.20;;;;;;20936380;28;20207;-73
2022/07/19 10:13:54;;;;;;;5.70;2.40;;;28.10;44.60;;;;;;20935400;28;20289;-74
2022/07/19 10:23:56;;;;;;;8.45;3.65;;;28.30;43.70;;;;;;20934775;28;20204;-73
2022/07/19 10:34:00;;;;;;;4.80;2.47;;;28.60;43.00;;;;;;20933627;28;20713;-73
2022/07/19 10:44:11;;;;;;;4.85;2.67;;;28.80;42.20;;;;;;20936774;28;20235;-72
2022/07/19 10:54:13;;;;;;;5.63;2.38;;;28.90;41.50;;;;;;20936316;28;20764;-72
2022/07/19 11:04:26;;;;;;;4.75;2.47;;;29.10;41.00;;;;;;20927476;28;20211;-73
2022/07/19 11:14:29;;;;;;;11.00;3.00;;;29.30;40.50;;;;;;20920980;28;20232;-70
2022/07/19 11:24:51;;;;;;;4.55;2.60;;;29.40;40.30;;;;;;20922352;28;20207;-72
2022/07/19 11:34:57;;;;;;;4.13;2.50;;;29.60;39.70;;;;;;20920204;28;20232;-74
2022/07/19 11:45:06;;;;;;;3.40;2.20;;;29.60;39.20;;;;;;20918022;28;20231;-73
2022/07/19 11:55:08;;;;;;;3.58;2.42;;;29.90;38.10;;;;;;20918630;28;20249;-75
2022/07/19 12:05:11;;;;;;;4.90;2.80;;;30.10;37.40;;;;;;20928069;28;20607;-74
2022/07/19 12:15:13;;;;;;;4.30;2.20;;;30.50;36.90;;;;;;20996343;28;20233;-72
2022/07/19 12:25:15;;;;;;;10.98;2.45;;;30.90;35.90;;;;;;20996020;28;20215;-73
2022/07/19 12:35:17;;;;;;;6.75;3.00;;;31.20;35.50;;;;;;20997231;28;20227;-73
2022/07/19 12:45:21;;;;;;;5.90;2.58;;;31.40;35.00;;;;;;20997331;28;20598;-73
2022/07/19 12:55:24;;;;;;;10.65;2.65;;;31.70;34.30;;;;;;20995667;28;20235;-73
2022/07/19 13:05:27;;;;;;;7.15;3.28;;;31.60;34.00;;;;;;20996782;28;20206;-74
2022/07/19 13:15:28;;;;;;;8.52;2.90;;;31.40;33.90;;;;;;20995793;28;20231;-72
2022/07/19 13:25:30;;;;;;;5.28;2.30;;;31.50;33.90;;;;;;20995093;28;20215;-75
2022/07/19 13:35:44;;;;;;;6.95;2.75;;;31.60;33.60;;;;;;20993501;28;20231;-72
2022/07/19 13:45:46;;;;;;;5.35;2.50;;;31.70;33.00;;;;;;20994631;28;20323;-72
2022/07/19 13:55:48;;;;;;;7.43;2.42;;;31.70;32.70;;;;;;20992938;28;20318;-72
2022/07/19 14:05:49;;;;;;;6.78;2.45;;;31.70;32.80;;;;;;20990892;28;20576;-72
2022/07/19 14:15:51;;;;;;;4.03;2.58;;;31.80;32.80;;;;;;20993235;28;20285;-72
2022/07/19 14:25:53;;;;;;;9.82;2.63;;;31.80;32.90;;;;;;20960011;28;20212;-74
2022/07/19 14:36:03;;;;;;;5.28;2.50;;;31.90;32.40;;;;;;20910140;28;20232;-72
2022/07/19 14:46:04;;;;;;;4.50;2.55;;;32.10;32.10;;;;;;21003306;28;20229;-75
2022/07/19 14:56:06;;;;;;;5.55;2.58;;;32.40;31.80;;;;;;20994756;28;20314;-74
2022/07/19 15:06:08;;;;;;;4.32;2.35;;;33.70;31.10;;;;;;20998631;28;20199;-71
2022/07/19 15:16:10;;;;;;;7.50;2.80;;;32.90;31.10;;;;;;20979165;28;20235;-73
2022/07/19 15:26:12;;;;;;;4.70;2.70;;;32.50;31.40;;;;;;20982867;28;20210;-76
2022/07/19 15:36:13;;;;;;;9.32;2.63;;;33.10;31.10;;;;;;21001865;28;20300;-74
2022/07/19 15:46:15;;;;;;;6.95;2.83;;;32.70;31.30;;;;;;21001523;28;20231;-74
2022/07/19 15:56:17;;;;;;;7.65;2.60;;;32.30;31.30;;;;;;20997898;28;20229;-71
2022/07/19 16:06:20;;;;;;;5.15;2.70;;;32.10;31.50;;;;;;20999320;28;20207;-74
2022/07/19 16:16:21;;;;;;;5.82;2.70;;;32.30;31.30;;;;;;21000394;28;20245;-77
2022/07/19 16:26:23;;;;;;;6.53;2.70;;;32.90;30.90;;;;;;20996336;28;20207;-72
2022/07/19 16:36:25;;;;;;;5.95;2.72;;;32.70;30.90;;;;;;20998019;28;20321;-71
2022/07/19 16:46:29;;;;;;;5.40;2.67;;;32.50;30.60;;;;;;20998416;28;20231;-74
2022/07/19 16:56:31;;;;;;;5.07;2.97;;;32.20;30.90;;;;;;20996165;28;20238;-73
2022/07/19 17:06:32;;;;;;;3.65;2.67;;;32.10;30.90;;;;;;20995265;28;20223;-74
2022/07/19 17:16:35;;;;;;;3.38;2.67;;;32.00;30.90;;;;;;20974817;28;20231;-76
2022/07/19 17:26:38;;;;;;;8.57;2.47;;;31.80;31.10;;;;;;20930321;28;20277;-78
2022/07/19 17:36:40;;;;;;;4.97;2.70;;;31.80;31.10;;;;;;20993803;28;20368;-76
2022/07/19 17:46:49;;;;;;;5.88;2.50;;;31.60;31.40;;;;;;20993014;28;20235;-78
2022/07/19 17:56:50;;;;;;;4.50;2.50;;;31.80;31.40;;;;;;20994103;28;20245;-75
2022/07/19 18:06:52;;;;;;;8.45;2.60;;;31.60;31.10;;;;;;20994341;28;20205;-78
2022/07/19 18:16:54;;;;;;;4.38;2.70;;;31.30;31.20;;;;;;21009306;28;20230;-77
2022/07/19 18:27:11;;;;;;;6.47;2.80;;;31.10;31.50;;;;;;21010835;28;20596;-76
2022/07/19 18:37:13;;;;;;;7.72;2.90;;;30.80;31.80;;;;;;21002950;28;20284;-75
2022/07/19 18:47:15;;;;;;;9.40;3.92;;;30.60;32.30;;;;;;20974656;28;20235;-74
2022/07/19 18:57:17;;;;;;;4.32;2.65;;;30.30;33.40;;;;;;20982240;28;20278;-73
2022/07/19 19:07:20;;;;;;;10.38;8.02;;;30.10;34.50;;;;;;21043003;28;20210;-73
2022/07/19 19:17:22;;;;;;;6.38;3.20;;;29.70;35.20;;;;;;21025864;28;20243;-79
2022/07/19 19:27:24;;;;;;;17.00;10.50;;;29.50;35.80;;;;;;20991161;28;20195;-75
2022/07/19 19:37:27;;;;;;;6.57;3.90;;;29.20;36.30;;;;;;21004337;28;20231;-74
2022/07/19 19:47:29;;;;;;;8.55;5.50;;;28.90;36.80;;;;;;21003827;28;20247;-73
2022/07/19 19:57:32;;;;;;;7.63;4.15;;;28.60;37.30;;;;;;21001991;28;20231;-75
2022/07/19 20:07:34;;;;;;;9.57;3.83;;;28.30;38.20;;;;;;20998445;28;20207;-75
2022/07/19 20:17:36;;;;;;;9.43;3.20;;;27.90;41.60;;;;;;21001747;28;20334;-74
2022/07/19 20:27:38;;;;;;;11.83;3.10;;;27.50;43.70;;;;;;21000404;28;20209;-72
2022/07/19 20:37:48;;;;;;;7.87;3.90;;;27.20;44.90;;;;;;20998637;28;20721;-71
2022/07/19 20:47:49;;;;;;;13.07;5.23;;;26.90;45.30;;;;;;20999062;28;20238;-76
2022/07/19 20:57:52;;;;;;;15.17;4.93;;;26.70;45.70;;;;;;20997877;28;20305;-72
2022/07/19 21:07:54;;;;;;;19.97;6.90;;;26.50;45.60;;;;;;20997348;28;20207;-75
2022/07/19 21:17:58;;;;;;;21.63;8.40;;;26.30;45.90;;;;;;20996804;28;20227;-74
2022/07/19 21:28:04;;;;;;;17.80;5.67;;;26.10;46.10;;;;;;20994787;28;20214;-74
2022/07/19 21:38:06;;;;;;;19.40;4.00;;;25.90;46.70;;;;;;20995707;28;20242;-78
2022/07/19 21:48:08;;;;;;;20.10;4.57;;;25.80;47.60;;;;;;20994647;28;20718;-73
2022/07/19 21:58:10;;;;;;;12.97;4.03;;;25.60;47.60;;;;;;20994540;28;20626;-74
2022/07/19 22:08:11;;;;;;;11.83;5.70;;;25.40;48.40;;;;;;20994012;28;20203;-74
2022/07/19 22:18:16;;;;;;;14.93;4.63;;;25.20;49.10;;;;;;20993976;28;20227;-78
2022/07/19 22:28:18;;;;;;;19.03;3.90;;;25.00;49.40;;;;;;20993657;28;20203;-76
2022/07/19 22:38:20;;;;;;;9.60;4.30;;;24.80;49.90;;;;;;20992854;28;20728;-77
2022/07/19 22:48:22;;;;;;;13.20;4.40;;;24.70;50.30;;;;;;20992845;28;20231;-77
2022/07/19 22:58:23;;;;;;;23.33;4.57;;;24.50;50.80;;;;;;20996603;28;20721;-77
2022/07/19 23:08:25;;;;;;;12.23;4.60;;;24.30;51.60;;;;;;21006721;28;20203;-78
2022/07/19 23:18:27;;;;;;;7.80;3.73;;;24.20;52.30;;;;;;21006265;28;20237;-77
2022/07/19 23:28:28;;;;;;;13.60;4.77;;;24.10;52.50;;;;;;21005330;28;20294;-78
2022/07/19 23:38:30;;;;;;;13.40;4.13;;;24.00;52.30;;;;;;21004544;28;20231;-78
2022/07/19 23:48:33;;;;;;;16.23;4.50;;;23.80;52.20;;;;;;21004038;28;20231;-79
2022/07/19 23:58:34;;;;;;;13.57;4.00;;;23.70;52.30;;;;;;21003076;28;20706;-79
